Time;durP1;ratioP1;P1;durP2;ratioP2;P2;SDS_P1;SDS_P2;PMS_P1;PMS_P2;Temp;Humidity;BMP_temperature;BMP_pressure;BME280_temperature;BME280_humidity;BME280_pressure;Samples;Min_cycle;Max_cycle;Signal;HPM_P1;HPM_P2
2023/01/24 00:02:54;;;;;;;52.90;43.50;;;;;;;1.82;75.03;102608.81;110156;1265;22452;-76
2023/01/24 00:05:37;;;;;;;56.70;46.50;;;;;;;1.82;75.09;102611.55;110555;1260;22888;-76
2023/01/24 00:08:22;;;;;;;52.50;43.90;;;;;;;1.83;75.25;102613.11;110658;1260;21984;-76
2023/01/24 00:11:08;;;;;;;52.40;45.60;;;;;;;1.83;75.31;102613.48;110642;1260;23738;-77
2023/01/24 00:13:57;;;;;;;57.40;46.70;;;;;;;1.83;75.30;102614.15;111177;1254;23030;-78
2023/01/24 00:16:40;;;;;;;49.80;44.10;;;;;;;1.84;75.34;102615.39;111091;1254;21963;-79
2023/01/24 00:19:28;;;;;;;52.40;43.30;;;;;;;1.82;75.24;102612.92;111163;1254;23030;-78
2023/01/24 00:22:06;;;;;;;52.90;45.20;;;;;;;1.84;75.36;102617.27;111089;1254;22307;-77
2023/01/24 00:24:46;;;;;;;51.80;46.00;;;;;;;1.86;75.31;102613.92;111157;1254;21959;-76
2023/01/24 00:27:35;;;;;;;51.30;45.30;;;;;;;1.88;75.31;102617.43;110592;1260;22844;-76
2023/01/24 00:30:11;;;;;;;48.20;42.80;;;;;;;1.89;75.39;102619.20;110212;1266;22007;-77
2023/01/24 00:32:51;;;;;;;50.60;44.00;;;;;;;1.92;75.34;102622.90;110240;1265;21978;-77
2023/01/24 00:35:42;;;;;;;51.50;45.90;;;;;;;1.91;75.25;102625.27;109413;1272;21979;-77
2023/01/24 00:38:30;;;;;;;51.40;45.60;;;;;;;1.90;75.30;102626.09;109317;1272;22002;-78
2023/01/24 00:41:08;;;;;;;54.80;46.40;;;;;;;1.93;75.35;102626.00;109421;1271;22018;-75
2023/01/24 00:43:48;;;;;;;56.90;46.80;;;;;;;1.95;75.28;102621.77;109444;1272;22010;-76
2023/01/24 00:46:28;;;;;;;50.30;44.70;;;;;;;1.95;75.28;102618.68;109587;1271;21984;-76
2023/01/24 00:49:06;;;;;;;53.70;45.20;;;;;;;1.96;75.27;102620.44;109003;1275;21989;-77
2023/01/24 00:51:54;;;;;;;49.20;41.80;;;;;;;1.94;75.24;102622.97;108921;1275;22050;-77
2023/01/24 00:54:50;;;;;;;51.40;44.50;;;;;;;1.97;75.41;102622.02;109965;1263;22099;-77
2023/01/24 00:57:33;;;;;;;56.30;43.90;;;;;;;1.98;75.27;102618.80;110445;1263;23724;-77
2023/01/24 01:00:21;;;;;;;51.90;43.10;;;;;;;2.00;75.30;102621.93;110416;1264;21971;-77
2023/01/24 01:03:06;;;;;;;46.00;40.50;;;;;;;2.01;75.20;102624.55;110137;1264;22339;-78
2023/01/24 01:05:45;;;;;;;45.40;39.20;;;;;;;2.01;75.06;102626.94;110678;1259;22033;-77
2023/01/24 01:08:17;;;;;;;48.50;40.20;;;;;;;2.00;75.10;102628.83;111246;1253;22140;-76
2023/01/24 01:10:50;;;;;;;47.40;40.70;;;;;;;1.99;75.25;102625.53;111078;1253;23627;-76
2023/01/24 01:13:30;;;;;;;46.50;40.30;;;;;;;1.98;75.18;102622.07;110843;1253;23594;-76
2023/01/24 01:16:20;;;;;;;50.30;39.60;;;;;;;2.00;75.35;102614.91;111453;1253;22173;-78
2023/01/24 01:18:56;;;;;;;49.50;40.90;;;;;;;2.05;75.37;102615.40;110701;1260;23693;-76
2023/01/24 01:21:44;;;;;;;;;;;;;;;;;;;;;
2023/01/24 01:24:14;;;;;;;40.60;36.20;;;;;;;2.07;75.14;102607.09;110249;1265;22987;-77
2023/01/24 01:27:05;;;;;;;44.10;38.00;;;;;;;2.11;75.16;102607.38;110168;1265;22092;-76
2023/01/24 01:29:56;;;;;;;45.60;39.20;;;;;;;2.11;75.14;102608.42;110266;1254;21985;-76
2023/01/24 01:33:08;;;;;;;46.90;40.90;;;;;;;2.08;75.11;102611.77;110068;1265;21984;-78
2023/01/24 01:36:02;;;;;;;45.40;38.30;;;;;;;2.07;74.96;102607.75;110125;1265;22874;-78
2023/01/24 01:38:38;;;;;;;43.90;38.80;;;;;;;2.08;75.02;102601.98;110283;1265;21978;-77
2023/01/24 01:41:28;;;;;;;46.20;38.60;;;;;;;2.09;74.96;102600.79;110446;1260;22390;-78
2023/01/24 01:44:46;;;;;;;45.40;40.40;;;;;;;2.06;74.95;102602.59;110577;1260;21994;-77
2023/01/24 01:47:32;;;;;;;42.60;35.50;;;;;;;2.03;74.95;102603.52;110501;1260;21976;-76
2023/01/24 01:50:45;;;;;;;42.90;38.30;;;;;;;2.04;75.02;102608.02;110665;1260;21968;-77
2023/01/24 01:53:48;;;;;;;44.30;38.80;;;;;;;2.06;75.14;102604.79;110575;1260;23074;-76
2023/01/24 01:56:47;;;;;;;44.90;37.40;;;;;;;2.07;75.04;102606.40;110650;1261;21967;-77
2023/01/24 01:59:40;;;;;;;44.90;39.40;;;;;;;2.07;74.99;102609.83;110605;1261;21998;-77
2023/01/24 02:02:20;;;;;;;45.40;39.80;;;;;;;2.08;74.97;102609.49;110257;1264;21982;-77
2023/01/24 02:05:07;;;;;;;43.70;37.50;;;;;;;2.09;74.99;102603.02;110533;1259;23933;-78
2023/01/24 02:08:04;;;;;;;42.90;38.20;;;;;;;2.10;74.98;102599.47;110329;1263;21981;-78
2023/01/24 02:13:43;;;;;;;45.30;40.50;;;;;;;2.06;74.85;102592.95;110434;1264;21979;-79
2023/01/24 02:16:30;;;;;;;46.70;41.80;;;;;;;2.04;74.89;102592.20;110477;1263;21996;-78
2023/01/24 02:19:45;;;;;;;45.70;40.20;;;;;;;2.04;74.97;102588.59;110506;1264;22982;-76
2023/01/24 02:22:53;;;;;;;49.10;43.90;;;;;;;2.04;74.90;102589.63;109691;1270;22994;-78
2023/01/24 02:25:55;;;;;;;50.70;44.10;;;;;;;2.03;74.88;102590.79;109637;1265;23042;-78
2023/01/24 02:28:30;;;;;;;48.30;42.90;;;;;;;2.03;74.91;102585.64;110592;1261;23594;-77
2023/01/24 02:31:18;;;;;;;50.90;44.60;;;;;;;2.06;74.97;102584.20;110466;1248;23112;-77
2023/01/24 02:33:53;;;;;;;56.30;45.40;;;;;;;2.06;74.80;102585.04;110585;1261;21975;-77
2023/01/24 02:36:40;;;;;;;49.60;44.30;;;;;;;2.06;74.81;102587.13;110576;1261;22446;-78
2023/01/24 02:39:48;;;;;;;51.50;44.80;;;;;;;2.07;74.83;102586.13;110091;1266;23631;-78
2023/01/24 02:42:34;;;;;;;53.70;46.60;;;;;;;2.05;74.73;102590.84;109149;1273;24308;-77
2023/01/24 02:45:35;;;;;;;47.90;42.70;;;;;;;2.04;74.79;102590.48;109276;1273;21982;-76
2023/01/24 02:48:17;;;;;;;46.20;40.80;;;;;;;2.02;74.94;102593.16;109229;1273;21993;-77
2023/01/24 02:53:55;;;;;;;43.90;38.80;;;;;;;2.05;74.83;102590.52;109338;1273;23806;-78
2023/01/24 02:59:15;;;;;;;46.40;39.10;;;;;;;2.08;74.96;102589.94;109299;1266;23050;-77
2023/01/24 03:01:56;;;;;;;46.00;41.00;;;;;;;2.10;74.83;102594.80;110638;1259;24514;-77
2023/01/24 03:04:38;;;;;;;44.80;39.40;;;;;;;2.11;74.81;102598.61;110530;1259;23393;-77
2023/01/24 03:07:21;;;;;;;50.90;43.40;;;;;;;2.13;74.82;102601.27;110299;1263;21971;-76
2023/01/24 03:10:10;;;;;;;48.10;42.80;;;;;;;2.14;74.81;102595.80;109684;1268;21977;-76
2023/01/24 03:36:39;;;;;;;46.70;41.70;;;;;;;2.08;74.75;102610.20;111184;1253;21979;-79
2023/01/24 03:42:12;;;;;;;43.80;37.50;;;;;;;2.06;74.72;102608.94;111351;1253;23580;-77
2023/01/24 03:44:48;;;;;;;51.80;42.50;;;;;;;2.02;74.63;102610.86;111122;1253;21962;-77
2023/01/24 03:47:28;;;;;;;47.50;40.90;;;;;;;2.01;74.79;102610.15;111104;1253;24283;-78
2023/01/24 03:52:55;;;;;;;45.40;40.40;;;;;;;2.04;74.76;102606.46;111174;1253;22188;-76
2023/01/24 03:55:29;;;;;;;47.00;40.20;;;;;;;2.05;74.72;102603.59;110656;1259;23024;-77
2023/01/24 03:58:40;;;;;;;44.90;39.00;;;;;;;2.06;74.70;102606.52;110603;1259;23590;-77
2023/01/24 04:01:37;;;;;;;51.90;44.10;;;;;;;2.04;74.69;102609.90;110533;1260;22013;-76
2023/01/24 04:04:21;;;;;;;44.80;39.90;;;;;;;2.05;74.83;102613.86;110658;1259;21965;-76
2023/01/24 04:07:00;;;;;;;44.20;39.50;;;;;;;2.06;74.76;102615.63;110551;1261;21967;-77
2023/01/24 04:09:46;;;;;;;48.30;40.70;;;;;;;2.07;74.78;102613.42;110213;1261;21966;-75
2023/01/24 04:12:20;;;;;;;;;;;;;;;2.10;74.81;102612.67;110516;1261;23149;-77
2023/01/24 04:15:00;;;;;;;48.00;41.30;;;;;;;2.04;74.90;102617.11;111022;1256;23656;-77
2023/01/24 04:17:39;;;;;;;48.90;43.60;;;;;;;2.04;74.87;102616.42;110822;1256;22809;-77
2023/01/24 04:20:18;;;;;;;48.80;43.60;;;;;;;2.07;74.95;102620.81;110140;1261;22027;-77
2023/01/24 04:23:33;;;;;;;;;;;;;;;;;;;;;
2023/01/24 04:26:21;;;;;;;47.90;42.70;;;;;;;2.09;74.84;102629.31;110270;1264;22915;-76
2023/01/24 04:28:54;;;;;;;47.90;42.70;;;;;;;2.12;74.81;102626.65;110436;1264;22607;-77
2023/01/24 04:31:36;;;;;;;47.30;41.60;;;;;;;2.10;74.65;102626.59;109710;1258;21996;-78
2023/01/24 04:34:25;;;;;;;47.60;42.50;;;;;;;2.08;74.72;102625.16;109356;1272;23028;-76
2023/01/24 04:37:14;;;;;;;47.20;42.10;;;;;;;2.06;74.67;102624.23;109012;1276;21995;-77
2023/01/24 04:39:50;;;;;;;52.90;45.20;;;;;;;2.05;74.70;102629.00;108950;1276;22022;-77
2023/01/24 04:42:26;;;;;;;52.50;46.50;;;;;;;2.04;74.58;102626.38;108951;1276;22021;-77
2023/01/24 04:45:17;;;;;;;52.00;46.40;;;;;;;2.02;74.55;102625.64;108712;1277;22015;-77
2023/01/24 04:48:10;;;;;;;55.80;47.30;;;;;;;1.98;74.70;102622.40;108845;1276;23700;-77
2023/01/24 04:50:52;;;;;;;55.30;47.30;;;;;;;1.99;74.76;102621.39;109222;1272;22083;-77
2023/01/24 04:53:38;;;;;;;52.20;46.50;;;;;;;2.00;74.76;102617.64;109349;1267;21978;-77
2023/01/24 04:56:22;;;;;;;54.90;47.20;;;;;;;1.98;74.78;102613.80;109950;1265;21982;-77
2023/01/24 04:59:12;;;;;;;55.50;48.10;;;;;;;1.97;74.82;102615.48;110094;1265;21963;-76
2023/01/24 05:02:10;;;;;;;58.30;48.10;;;;;;;1.93;74.89;102620.35;110060;1265;22260;-78
2023/01/24 05:04:55;;;;;;;61.00;50.50;;;;;;;1.90;74.86;102617.17;110581;1262;23138;-76
2023/01/24 05:07:39;;;;;;;55.80;47.50;;;;;;;1.90;74.91;102620.43;110443;1262;22979;-77
2023/01/24 05:10:23;;;;;;;57.10;50.30;;;;;;;1.91;74.90;102621.68;110337;1262;21979;-78
2023/01/24 05:12:57;;;;;;;56.10;48.60;;;;;;;1.94;74.95;102627.43;110541;1257;21966;-77
2023/01/24 05:15:31;;;;;;;53.30;47.20;;;;;;;1.95;75.04;102627.80;110964;1257;22983;-77
2023/01/24 05:18:17;;;;;;;57.80;50.50;;;;;;;1.97;75.02;102636.08;110875;1257;23696;-78
2023/01/24 05:21:18;;;;;;;53.60;47.70;;;;;;;1.97;75.05;102636.98;110298;1264;23854;-74
2023/01/24 05:23:56;;;;;;;56.60;50.60;;;;;;;1.95;75.01;102638.77;110521;1260;23000;-76
2023/01/24 05:26:56;;;;;;;56.70;49.20;;;;;;;1.93;75.06;102636.66;110614;1253;23097;-76
2023/01/24 05:29:40;;;;;;;58.60;46.90;;;;;;;1.96;75.14;102636.75;110658;1259;21973;-76
2023/01/24 05:32:22;;;;;;;57.70;47.70;;;;;;;1.96;75.09;102635.73;110652;1260;23011;-76
2023/01/24 05:35:05;;;;;;;53.00;46.70;;;;;;;1.94;74.93;102640.63;110557;1260;21957;-76
2023/01/24 05:38:27;;;;;;;56.40;48.30;;;;;;;1.91;75.07;102644.32;110491;1261;22045;-76
2023/01/24 05:41:22;;;;;;;55.50;48.90;;;;;;;1.93;75.21;102642.33;110575;1261;22279;-77
2023/01/24 05:44:06;;;;;;;53.80;46.30;;;;;;;1.94;75.06;102640.80;110543;1261;23725;-76
2023/01/24 05:47:04;;;;;;;61.90;50.40;;;;;;;1.93;75.19;102639.41;110947;1254;23718;-78
2023/01/24 05:50:03;;;;;;;;;;;;;;;;;;;;;
2023/01/24 05:53:13;;;;;;;;;;;;;;;;;;;;;
2023/01/24 05:56:23;;;;;;;58.80;49.60;;;;;;;1.90;75.15;102641.70;110610;1260;22848;-76
2023/01/24 05:59:34;;;;;;;58.80;51.90;;;;;;;1.88;75.20;102644.02;110493;1260;21973;-78
2023/01/24 06:02:11;;;;;;;59.90;52.40;;;;;;;1.87;75.20;102644.53;110449;1261;22834;-77
2023/01/24 06:04:50;;;;;;;56.10;50.10;;;;;;;1.87;75.14;102650.00;110552;1261;22069;-78
2023/01/24 06:07:24;;;;;;;54.30;46.90;;;;;;;1.87;75.25;102649.84;110113;1266;22525;-76
2023/01/24 06:10:03;;;;;;;52.50;46.40;;;;;;;1.88;75.30;102659.51;109805;1266;21971;-78
2023/01/24 06:12:43;;;;;;;51.40;45.70;;;;;;;1.90;75.31;102666.45;109728;1266;21995;-77
2023/01/24 06:15:21;;;;;;;50.30;43.90;;;;;;;1.91;75.32;102668.01;110483;1260;22072;-77
2023/01/24 06:17:51;;;;;;;51.10;45.50;;;;;;;1.90;75.27;102667.83;110622;1260;22095;-76
2023/01/24 06:20:30;;;;;;;55.10;47.00;;;;;;;1.91;75.33;102671.27;110668;1260;21972;-77
2023/01/24 06:23:31;;;;;;;55.40;47.10;;;;;;;1.89;75.34;102672.06;110553;1260;22713;-78
2023/01/24 06:26:13;;;;;;;58.90;50.20;;;;;;;1.90;75.41;102677.45;110845;1255;22896;-77
2023/01/24 06:28:52;;;;;;;63.60;53.60;;;;;;;1.93;75.48;102677.54;110620;1260;23827;-76
2023/01/24 06:32:10;;;;;;;69.90;59.40;;;;;;;1.96;75.64;102677.63;110713;1260;21973;-76
2023/01/24 06:35:07;;;;;;;62.80;54.80;;;;;;;1.99;75.48;102682.90;110718;1259;21968;-76
2023/01/24 06:37:54;;;;;;;62.80;53.40;;;;;;;2.00;75.43;102682.05;110599;1255;21992;-76
2023/01/24 06:40:30;;;;;;;59.70;51.00;;;;;;;2.02;75.44;102681.96;110617;1260;21984;-77
2023/01/24 06:43:12;;;;;;;62.20;51.20;;;;;;;2.04;75.47;102684.77;110573;1260;22427;-75
2023/01/24 06:45:47;;;;;;;62.50;52.00;;;;;;;2.07;75.43;102689.52;109302;1259;1680657;-77
2023/01/24 06:48:19;;;;;;;62.30;52.30;;;;;;;2.11;75.45;102690.70;111028;1255;22917;-77
2023/01/24 06:50:55;;;;;;;62.30;53.60;;;;;;;2.14;75.34;102695.58;111130;1255;23680;-77
2023/01/24 06:53:26;;;;;;;57.40;51.20;;;;;;;2.13;75.24;102693.48;111090;1255;22212;-76
2023/01/24 06:55:58;;;;;;;56.90;50.60;;;;;;;2.12;75.21;102696.58;111007;1255;21966;-76
2023/01/24 06:58:29;;;;;;;67.70;58.00;;;;;;;2.13;75.19;102694.36;110874;1254;21959;-78
2023/01/24 07:01:02;;;;;;;65.80;56.70;;;;;;;2.12;75.18;102693.65;111010;1255;23594;-76
2023/01/24 07:03:36;;;;;;;73.20;59.80;;;;;;;2.13;75.23;102699.17;111070;1255;22002;-75
2023/01/24 07:06:28;;;;;;;66.70;56.80;;;;;;;2.13;75.14;102697.98;111394;1252;21997;-76
2023/01/24 07:09:16;;;;;;;67.50;57.40;;;;;;;2.12;75.21;102700.52;110898;1255;23013;-74
2023/01/24 07:11:58;;;;;;;67.30;57.00;;;;;;;2.14;75.22;102703.16;110622;1260;23618;-79
2023/01/24 07:14:28;;;;;;;65.20;55.80;;;;;;;2.17;75.19;102702.42;110634;1260;22103;-75
2023/01/24 07:17:04;;;;;;;75.50;57.00;;;;;;;2.19;75.24;102703.67;110481;1257;23473;-77
2023/01/24 07:22:55;;;;;;;62.60;53.10;;;;;;;2.16;75.17;102702.19;109502;1270;23751;-79
2023/01/24 07:26:17;;;;;;;58.70;51.80;;;;;;;2.18;75.28;102702.77;109666;1267;21940;-76
2023/01/24 07:28:50;;;;;;;59.80;52.40;;;;;;;2.19;75.32;102700.94;109503;1270;21997;-75
2023/01/24 07:31:36;;;;;;;61.70;55.00;;;;;;;2.22;75.28;102698.60;110270;1264;22907;-77
2023/01/24 07:34:20;;;;;;;61.90;49.50;;;;;;;2.23;75.23;102700.70;110301;1265;23761;-76
2023/01/24 07:37:17;;;;;;;65.50;52.80;;;;;;;2.23;75.08;102701.58;109763;1264;24358;-77
2023/01/24 07:40:01;;;;;;;65.10;53.40;;;;;;;2.18;75.04;102697.30;109605;1270;22006;-75
2023/01/24 07:42:42;;;;;;;60.20;49.70;;;;;;;2.15;75.07;102695.82;110081;1265;22065;-77
2023/01/24 07:45:35;;;;;;;58.40;48.80;;;;;;;2.15;75.11;102698.21;110162;1265;21990;-77
2023/01/24 07:48:51;;;;;;;;;;;;;;;;;;;;;
2023/01/24 07:51:39;;;;;;;;;;;;;;;;;;;;;
2023/01/24 07:54:34;;;;;;;56.80;48.70;;;;;;;2.11;75.15;102699.64;109837;1265;21974;-76
2023/01/24 07:57:12;;;;;;;58.50;50.80;;;;;;;2.11;75.22;102695.67;110444;1260;22066;-77
2023/01/24 08:00:07;;;;;;;56.70;50.30;;;;;;;2.12;75.22;102695.71;110514;1250;22464;-77
2023/01/24 08:03:36;;;;;;;62.50;52.80;;;;;;;2.10;75.26;102701.30;110676;1260;21969;-77
2023/01/24 08:06:25;;;;;;;67.10;54.80;;;;;;;2.15;75.49;102706.98;110619;1260;23077;-75
2023/01/24 08:09:58;;;;;;;62.70;52.00;;;;;;;2.24;75.60;102710.89;110021;1266;23071;-76
2023/01/24 08:13:54;;;;;;;60.70;50.80;;;;;;;2.27;75.43;102714.42;110183;1265;21963;-76
2023/01/24 08:17:25;;;;;;;;;;;;;;;;;;;;;
2023/01/24 08:20:52;;;;;;;65.60;54.60;;;;;;;2.29;75.43;102720.88;110314;1265;22691;-77
2023/01/24 08:23:56;;;;;;;70.80;58.60;;;;;;;2.37;75.43;102721.14;110248;1265;21977;-78
2023/01/24 08:26:51;;;;;;;;;;;;;;;;;;;;;
2023/01/24 08:29:24;;;;;;;69.70;58.70;;;;;;;2.51;75.40;102718.69;110910;1261;22134;-81
2023/01/24 08:32:08;;;;;;;75.70;60.30;;;;;;;2.55;75.06;102718.29;110736;1261;21987;-78
2023/01/24 08:35:05;;;;;;;73.40;63.00;;;;;;;2.57;75.16;102715.75;110889;1257;22504;-79
2023/01/24 08:37:44;;;;;;;66.80;55.80;;;;;;;2.60;74.97;102716.02;110527;1261;21979;-76
2023/01/24 08:40:32;;;;;;;72.10;58.00;;;;;;;2.62;75.01;102719.02;110693;1261;23018;-79
2023/01/24 08:43:29;;;;;;;70.80;55.30;;;;;;;2.65;75.06;102721.70;110784;1262;21967;-79
2023/01/24 08:46:18;;;;;;;70.60;59.30;;;;;;;2.67;74.98;102722.83;110880;1262;22912;-79
2023/01/24 08:49:29;;;;;;;64.40;55.50;;;;;;;2.74;75.05;102726.80;111094;1258;21975;-81
2023/01/24 08:52:27;;;;;;;63.50;53.20;;;;;;;2.79;74.95;102730.75;110464;1266;21977;-80
2023/01/24 08:55:30;;;;;;;61.30;52.60;;;;;;;2.79;74.63;102735.21;110205;1261;22004;-81
2023/01/24 08:58:34;;;;;;;;;;;;;;;;;;;;;
2023/01/24 09:01:27;;;;;;;64.30;53.40;;;;;;;2.80;74.55;102738.88;110180;1267;22008;-79
2023/01/24 09:04:26;;;;;;;72.10;59.50;;;;;;;2.81;74.56;102741.66;110236;1267;21976;-79
2023/01/24 09:07:38;;;;;;;69.10;56.90;;;;;;;2.79;74.48;102747.45;110385;1267;21981;-81
2023/01/24 09:10:56;;;;;;;;;;;;;;;;;;;;;
2023/01/24 09:13:52;;;;;;;60.90;52.30;;;;;;;2.75;74.28;102749.02;109069;1279;22014;-81
2023/01/24 09:17:09;;;;;;;63.20;51.50;;;;;;;2.75;74.29;102745.59;109180;1275;23954;-80
2023/01/24 09:20:21;;;;;;;67.60;56.40;;;;;;;2.76;74.38;102744.61;109388;1271;21975;-79
2023/01/24 09:23:24;;;;;;;67.30;56.40;;;;;;;2.76;74.26;102740.47;109467;1275;22030;-79
2023/01/24 09:30:07;;;;;;;57.90;51.10;;;;;;;2.80;74.33;102742.83;110416;1260;21967;-76
2023/01/24 09:33:21;;;;;;;59.60;51.20;;;;;;;2.82;74.42;102743.58;111404;1253;21968;-80
2023/01/24 09:36:27;;;;;;;54.90;47.90;;;;;;;2.83;74.37;102741.36;111595;1253;21977;-79
2023/01/24 09:40:03;;;;;;;55.50;48.50;;;;;;;2.80;74.37;102741.61;111592;1253;22255;-79
2023/01/24 09:43:44;;;;;;;56.00;48.70;;;;;;;2.77;74.33;102742.23;111138;1253;23692;-78
2023/01/24 09:47:48;;;;;;;53.30;44.80;;;;;;;2.79;74.38;102742.11;111096;1260;23628;-79
2023/01/24 09:51:30;;;;;;;64.20;53.70;;;;;;;2.78;74.32;102744.48;110237;1267;21998;-79
2023/01/24 09:55:02;;;;;;;70.20;58.00;;;;;;;2.79;74.35;102741.77;109359;1273;21994;-78
2023/01/24 09:58:34;;;;;;;79.90;61.70;;;;;;;2.81;74.36;102738.56;109292;1273;23615;-80
2023/01/24 10:04:48;;;;;;;68.20;57.70;;;;;;;2.90;74.42;102738.35;108833;1278;23717;-78
2023/01/24 10:07:32;;;;;;;61.90;52.40;;;;;;;2.93;74.21;102731.06;108973;1278;22005;-78
2023/01/24 10:10:32;;;;;;;63.40;51.80;;;;;;;2.98;74.18;102730.84;108904;1274;23629;-77
2023/01/24 10:13:56;;;;;;;64.60;55.10;;;;;;;3.01;74.16;102733.71;108908;1274;23641;-79
2023/01/24 10:17:10;;;;;;;66.70;54.40;;;;;;;3.01;73.96;102735.59;108779;1278;21995;-80
2023/01/24 10:20:52;;;;;;;60.10;51.20;;;;;;;3.02;74.04;102729.94;108466;1279;22002;-78
2023/01/24 10:23:48;;;;;;;59.50;51.90;;;;;;;3.01;74.04;102732.65;108771;1277;21990;-76
2023/01/24 10:26:41;;;;;;;107.60;60.40;;;;;;;3.02;73.96;102737.67;108988;1277;22030;-82
2023/01/24 10:30:01;;;;;;;79.80;61.60;;;;;;;3.07;73.99;102737.17;109274;1277;22161;-80
2023/01/24 10:36:59;;;;;;;;;;;;;;;;;;;;;
2023/01/24 10:40:25;;;;;;;64.30;53.60;;;;;;;3.05;73.59;102730.39;110364;1265;22064;-76
2023/01/24 10:43:24;;;;;;;68.70;54.40;;;;;;;3.09;73.79;102729.47;110525;1264;22060;-78
2023/01/24 10:47:21;;;;;;;65.80;57.30;;;;;;;3.15;73.76;102732.73;110385;1264;23868;-78
2023/01/24 10:50:15;;;;;;;64.00;53.30;;;;;;;3.16;73.72;102731.05;109247;1267;22010;-77
2023/01/24 10:53:25;;;;;;;69.30;56.40;;;;;;;3.18;73.59;102727.52;108603;1281;21996;-77
2023/01/24 10:56:13;;;;;;;66.30;55.90;;;;;;;3.19;73.66;102728.40;108284;1286;22805;-77
2023/01/24 10:59:12;;;;;;;99.50;64.30;;;;;;;3.21;73.57;102727.96;108696;1278;22011;-78
2023/01/24 11:02:26;;;;;;;89.60;60.90;;;;;;;3.23;73.45;102731.27;108666;1278;22009;-77
2023/01/24 11:05:25;;;;;;;;;;;;;;;3.18;73.24;102725.80;108974;1278;22500;-78
2023/01/24 11:08:37;;;;;;;73.50;57.30;;;;;;;3.10;73.29;102722.96;108559;1279;22183;-78
2023/01/24 11:11:51;;;;;;;72.30;56.00;;;;;;;3.02;73.22;102718.59;108746;1278;22173;-78
2023/01/24 11:14:40;;;;;;;56.20;48.40;;;;;;;3.01;73.42;102716.33;108781;1278;21992;-78
2023/01/24 11:17:38;;;;;;;65.30;55.60;;;;;;;3.03;73.43;102716.91;109103;1278;23070;-78
2023/01/24 11:20:35;;;;;;;65.70;54.80;;;;;;;3.07;73.49;102717.38;108890;1276;22058;-78
2023/01/24 11:23:30;;;;;;;73.20;63.30;;;;;;;3.15;73.57;102716.24;108924;1278;22092;-77
2023/01/24 11:26:40;;;;;;;67.30;56.60;;;;;;;3.21;73.59;102706.27;109754;1266;21975;-78
2023/01/24 11:30:04;;;;;;;65.40;55.30;;;;;;;3.25;73.56;102707.59;110004;1264;22127;-77
2023/01/24 11:33:55;;;;;;;68.70;55.60;;;;;;;3.26;73.42;102707.11;110675;1258;23756;-76
2023/01/24 11:37:01;;;;;;;64.90;53.50;;;;;;;3.29;73.35;102702.55;110823;1258;21991;-77
2023/01/24 11:40:24;;;;;;;55.90;48.60;;;;;;;3.29;73.21;102704.45;110737;1258;22106;-77
2023/01/24 11:43:58;;;;;;;;;;;;;;;;;;;;;
2023/01/24 11:46:53;;;;;;;54.60;48.50;;;;;;;3.24;73.16;102691.03;110941;1254;21994;-79
2023/01/24 11:50:05;;;;;;;66.10;52.90;;;;;;;3.26;73.03;102689.56;111285;1253;23651;-79
2023/01/24 11:53:22;;;;;;;54.70;48.10;;;;;;;3.29;73.21;102686.73;111212;1254;22034;-78
2023/01/24 11:56:28;;;;;;;62.10;53.20;;;;;;;3.32;73.07;102680.11;111226;1254;23786;-79
2023/01/24 11:59:38;;;;;;;67.50;56.70;;;;;;;3.32;72.90;102681.15;111317;1254;22063;-77
2023/01/24 12:02:35;;;;;;;60.90;50.10;;;;;;;3.34;72.93;102682.05;111216;1255;21967;-77
2023/01/24 12:05:28;;;;;;;59.60;50.30;;;;;;;3.38;73.04;102684.38;111193;1255;23724;-79
2023/01/24 12:08:25;;;;;;;59.20;50.80;;;;;;;3.43;73.03;102681.77;111149;1255;21961;-79
2023/01/24 12:11:13;;;;;;;71.00;62.00;;;;;;;3.49;73.06;102674.21;111324;1254;22646;-78
2023/01/24 12:14:34;;;;;;;64.00;54.80;;;;;;;3.57;73.13;102674.44;110756;1261;22244;-79
2023/01/24 12:17:41;;;;;;;62.80;52.50;;;;;;;3.65;73.19;102671.40;110158;1266;22051;-80
2023/01/24 12:20:33;;;;;;;60.80;53.10;;;;;;;3.69;72.92;102667.70;110164;1266;22029;-78
2023/01/24 12:23:29;;;;;;;61.50;50.40;;;;;;;3.74;72.95;102670.08;110056;1271;21981;-79
2023/01/24 12:27:07;;;;;;;61.50;48.30;;;;;;;3.77;72.78;102668.45;109731;1271;23604;-78
2023/01/24 12:30:31;;;;;;;61.90;52.40;;;;;;;3.74;72.29;102661.64;109674;1270;22094;-79
2023/01/24 12:33:32;;;;;;;66.70;53.20;;;;;;;3.65;72.28;102653.14;110065;1263;23708;-78
2023/01/24 12:36:25;;;;;;;78.40;58.10;;;;;;;3.61;72.15;102651.64;110610;1258;22039;-79
2023/01/24 12:39:05;;;;;;;64.30;54.30;;;;;;;3.56;72.24;102649.11;111034;1258;21972;-80
2023/01/24 12:42:57;;;;;;;62.50;52.70;;;;;;;3.58;72.35;102648.65;111316;1253;25015;-81
2023/01/24 12:45:59;;;;;;;63.30;53.90;;;;;;;3.66;72.65;102648.34;111602;1248;21980;-81
2023/01/24 12:49:41;;;;;;;61.60;54.20;;;;;;;3.74;72.62;102643.23;111348;1241;23022;-82
2023/01/24 12:52:56;;;;;;;77.10;68.90;;;;;;;3.75;72.37;102644.98;110932;1261;22934;-82
2023/01/24 12:55:50;;;;;;;71.10;56.20;;;;;;;3.75;72.24;102647.57;110894;1260;22704;-80
2023/01/24 12:58:34;;;;;;;69.90;57.60;;;;;;;3.75;72.09;102651.34;110371;1265;22006;-81
2023/01/24 13:01:29;;;;;;;72.30;57.60;;;;;;;3.74;71.93;102656.64;110549;1263;22101;-81
2023/01/24 13:04:16;;;;;;;70.50;60.70;;;;;;;3.70;71.92;102653.46;110817;1264;21999;-81
2023/01/24 13:07:37;;;;;;;66.60;58.10;;;;;;;3.66;71.80;102655.23;110721;1266;21978;-81
2023/01/24 13:10:21;;;;;;;62.60;49.90;;;;;;;3.59;71.80;102659.52;110447;1266;21988;-81
2023/01/24 13:13:04;;;;;;;60.70;50.50;;;;;;;3.55;71.76;102661.30;110274;1260;22019;-82
2023/01/24 13:16:26;;;;;;;63.60;52.70;;;;;;;3.52;71.78;102661.41;110250;1260;23065;-81
2023/01/24 13:19:15;;;;;;;68.30;54.10;;;;;;;3.49;71.91;102659.42;109985;1269;22313;-81
2023/01/24 13:22:05;;;;;;;66.90;56.60;;;;;;;3.49;71.95;102665.80;109826;1270;22414;-84
2023/01/24 13:24:41;;;;;;;67.80;57.70;;;;;;;3.51;72.06;102666.18;109962;1270;22472;-82
2023/01/24 13:28:03;;;;;;;;;;;;;;;;;;;;;
2023/01/24 13:31:13;;;;;;;68.00;58.00;;;;;;;3.49;71.97;102663.70;111005;1257;22724;-81
2023/01/24 13:34:02;;;;;;;71.40;58.70;;;;;;;3.48;72.06;102660.76;110973;1262;22068;-80
2023/01/24 13:36:51;;;;;;;69.70;55.80;;;;;;;3.45;71.89;102654.81;110992;1262;23712;-81
2023/01/24 13:39:39;;;;;;;69.20;58.10;;;;;;;3.41;71.86;102651.44;110766;1262;22620;-80
2023/01/24 13:42:33;;;;;;;69.60;57.40;;;;;;;3.39;71.83;102646.89;110839;1262;22976;-80
2023/01/24 13:45:25;;;;;;;70.40;59.90;;;;;;;3.40;72.05;102643.66;110658;1262;21984;-81
2023/01/24 13:48:04;;;;;;;68.50;56.00;;;;;;;3.39;71.97;102644.15;110871;1262;24303;-79
2023/01/24 13:50:46;;;;;;;65.40;56.90;;;;;;;3.36;71.80;102644.58;110697;1262;23023;-80
2023/01/24 13:53:54;;;;;;;63.40;54.90;;;;;;;3.35;71.89;102649.02;110647;1262;21992;-79
2023/01/24 13:56:23;;;;;;;70.40;58.00;;;;;;;3.32;71.84;102655.83;111138;1255;21968;-79
2023/01/24 13:58:56;;;;;;;74.40;57.70;;;;;;;3.31;71.82;102659.40;111470;1254;21976;-80
2023/01/24 14:01:27;;;;;;;68.90;56.70;;;;;;;3.28;71.81;102658.64;111393;1254;22379;-79
2023/01/24 14:04:04;;;;;;;71.40;56.20;;;;;;;3.25;71.81;102655.79;111240;1253;21966;-79
2023/01/24 14:06:46;;;;;;;64.40;53.50;;;;;;;3.25;71.90;102658.36;111221;1253;22268;-80
2023/01/24 14:09:27;;;;;;;62.40;53.30;;;;;;;3.24;71.85;102658.53;111426;1254;24432;-78
2023/01/24 14:12:04;;;;;;;67.20;54.60;;;;;;;3.22;71.88;102655.89;111474;1254;23042;-80
2023/01/24 14:15:40;;;;;;;71.50;58.80;;;;;;;3.18;71.90;102655.77;111394;1254;21930;-81
2023/01/24 14:18:54;;;;;;;75.60;60.50;;;;;;;3.16;72.18;102656.40;110808;1262;24356;-80
2023/01/24 14:21:47;;;;;;;83.90;65.70;;;;;;;3.16;72.13;102664.49;110800;1262;21993;-81
2023/01/24 14:24:35;;;;;;;86.10;72.50;;;;;;;3.15;72.16;102672.38;110836;1262;22901;-78
2023/01/24 14:27:33;;;;;;;84.80;72.20;;;;;;;3.14;72.02;102675.61;110892;1261;21977;-80